createdAt,value
2019-02-10T00:01:53.434Z,64.03
2019-02-10T00:04:35.621Z,57.23
2019-02-10T00:07:17.665Z,56.20
2019-02-10T00:09:59.644Z,49.63
2019-02-10T00:12:41.679Z,43.40
2019-02-10T00:15:23.521Z,55.00
2019-02-10T00:18:05.927Z,50.67
2019-02-10T00:20:48.574Z,49.40
2019-02-10T00:23:30.962Z,42.70
2019-02-10T00:26:14.006Z,42.87
2019-02-10T00:28:56.152Z,45.33
2019-02-10T00:31:38.336Z,55.60
2019-02-10T00:34:19.831Z,48.03
2019-02-10T00:37:03.202Z,45.17
2019-02-10T00:39:46.636Z,54.17
2019-02-10T00:42:28.567Z,47.80
2019-02-10T00:45:11.961Z,46.40
2019-02-10T00:47:54.205Z,47.57
2019-02-10T00:50:36.255Z,42.60
2019-02-10T00:53:18.358Z,49.80
2019-02-10T00:56:00.656Z,55.27
2019-02-10T00:58:42.663Z,55.27
2019-02-10T01:01:25.779Z,55.07
2019-02-10T01:04:12.903Z,46.70
2019-02-10T01:06:54.973Z,51.07
2019-02-10T01:09:36.816Z,52.47
2019-02-10T01:12:19.018Z,53.43
2019-02-10T01:15:01.038Z,43.13
2019-02-10T01:20:39.932Z,35.57
2019-02-10T01:23:24.596Z,43.13
2019-02-10T01:26:07.183Z,51.50
2019-02-10T01:28:49.318Z,40.70
2019-02-10T01:31:31.171Z,48.90
2019-02-10T01:34:13.404Z,51.90
2019-02-10T01:36:55.827Z,41.63
2019-02-10T01:39:38.107Z,42.20
2019-02-10T01:42:20.303Z,36.67
2019-02-10T01:45:03.419Z,39.93
2019-02-10T01:47:46.030Z,41.47
2019-02-10T01:50:28.579Z,49.60
2019-02-10T01:53:10.613Z,40.33
2019-02-10T01:55:40.923Z,36.70
2019-02-10T01:58:30.863Z,35.83
2019-02-10T02:01:13.379Z,43.70
2019-02-10T02:03:54.157Z,47.33
2019-02-10T02:06:37.249Z,41.03
2019-02-10T02:09:19.552Z,38.37
2019-02-10T02:12:01.479Z,52.47
2019-02-10T02:14:44.082Z,43.80
2019-02-10T02:17:26.439Z,38.80
2019-02-10T02:20:09.219Z,39.33
2019-02-10T02:22:51.716Z,46.10
2019-02-10T02:25:36.817Z,46.83
2019-02-10T02:28:19.084Z,40.13
2019-02-10T02:31:01.287Z,37.40
2019-02-10T02:33:43.545Z,43.37
2019-02-10T02:36:25.682Z,46.30
2019-02-10T02:39:07.877Z,40.93
2019-02-10T02:41:52.109Z,41.03
2019-02-10T02:44:35.917Z,44.17
2019-02-10T02:47:18.275Z,42.90
2019-02-10T02:50:00.528Z,36.53
2019-02-10T02:52:42.961Z,41.23
2019-02-10T02:55:25.270Z,39.18
2019-02-10T02:58:07.646Z,42.83
2019-02-10T03:00:50.033Z,40.33
2019-02-10T03:03:31.787Z,33.77
2019-02-10T03:06:14.196Z,41.60
2019-02-10T03:08:56.283Z,33.90
2019-02-10T03:11:38.200Z,37.20
2019-02-10T03:14:20.225Z,41.63
2019-02-10T03:17:02.622Z,35.07
2019-02-10T03:19:44.823Z,50.37
2019-02-10T03:22:27.974Z,26.23
2019-02-10T03:25:10.180Z,32.63
2019-02-10T03:27:52.259Z,36.70
2019-02-10T03:30:34.419Z,37.27
2019-02-10T03:33:16.441Z,38.93
2019-02-10T03:35:58.725Z,37.50
2019-02-10T03:38:40.447Z,36.67
2019-02-10T03:41:22.471Z,39.17
2019-02-10T03:44:04.527Z,38.80
2019-02-10T03:46:47.135Z,34.87
2019-02-10T03:49:28.985Z,32.47
2019-02-10T03:52:11.299Z,32.10
2019-02-10T03:54:53.163Z,44.43
2019-02-10T03:57:35.247Z,37.40
2019-02-10T04:00:17.277Z,36.70
2019-02-10T04:02:59.074Z,34.17
2019-02-10T04:05:40.923Z,33.37
2019-02-10T04:08:23.239Z,32.73
2019-02-10T04:11:05.522Z,34.03
2019-02-10T04:13:47.979Z,30.13
2019-02-10T04:16:30.071Z,38.83
2019-02-10T04:19:12.787Z,34.27
2019-02-10T04:21:57.042Z,27.23
2019-02-10T04:24:39.422Z,24.87
2019-02-10T04:27:21.154Z,29.43
2019-02-10T04:30:02.987Z,28.80
2019-02-10T04:32:45.852Z,25.90
2019-02-10T04:35:28.347Z,26.00
2019-02-10T04:38:10.324Z,26.50
2019-02-10T04:40:52.310Z,29.03
2019-02-10T04:43:34.232Z,31.20
2019-02-10T04:46:16.451Z,22.40
2019-02-10T04:48:58.744Z,26.57
2019-02-10T04:51:40.788Z,28.73
2019-02-10T04:54:22.684Z,30.33
2019-02-10T04:57:04.714Z,27.20
2019-02-10T04:59:46.883Z,26.00
2019-02-10T05:02:17.568Z,33.53
2019-02-10T05:04:59.954Z,32.70
2019-02-10T05:07:43.732Z,38.75
2019-02-10T05:10:26.289Z,26.83
2019-02-10T05:13:08.772Z,24.70
2019-02-10T05:15:50.842Z,20.83
2019-02-10T05:18:32.867Z,28.20
2019-02-10T05:21:14.536Z,33.17
2019-02-10T05:24:03.230Z,18.03
2019-02-10T05:26:40.711Z,22.83
2019-02-10T05:29:23.205Z,22.43
2019-02-10T05:32:07.069Z,29.97
2019-02-10T05:34:49.479Z,26.50
2019-02-10T05:37:31.483Z,20.47
2019-02-10T05:40:13.736Z,26.63
2019-02-10T05:42:55.706Z,26.17
2019-02-10T05:45:37.751Z,21.87
2019-02-10T05:48:22.791Z,21.40
2019-02-10T05:51:05.054Z,28.60
2019-02-10T05:53:47.061Z,23.50
2019-02-10T05:56:29.283Z,28.27
2019-02-10T05:58:59.496Z,27.17
2019-02-10T06:05:25.895Z,21.73
2019-02-10T06:08:13.588Z,24.93
2019-02-10T06:10:52.287Z,24.20
2019-02-10T06:13:34.077Z,26.90
2019-02-10T06:16:16.143Z,22.97
2019-02-10T06:18:58.508Z,19.13
2019-02-10T06:21:41.004Z,28.50
2019-02-10T06:24:11.284Z,23.87
2019-02-10T06:26:53.397Z,27.03
2019-02-10T06:29:35.860Z,23.60
2019-02-10T06:32:18.111Z,26.83
2019-02-10T06:35:00.456Z,20.03
2019-02-10T06:37:42.991Z,22.03
2019-02-10T06:40:25.193Z,22.33
2019-02-10T06:46:06.559Z,24.30
2019-02-10T06:48:48.383Z,25.03
2019-02-10T06:51:30.760Z,27.87
2019-02-10T06:54:12.705Z,23.60
2019-02-10T06:56:55.307Z,26.87
2019-02-10T07:03:02.956Z,30.70
2019-02-10T07:05:45.455Z,19.00
2019-02-10T07:08:30.621Z,30.03
2019-02-10T07:11:11.806Z,24.30
2019-02-10T07:13:55.338Z,30.43
2019-02-10T07:16:36.925Z,29.47
2019-02-10T07:19:19.458Z,20.20
2019-02-10T07:22:01.736Z,21.73
2019-02-10T07:24:43.410Z,29.57
2019-02-10T07:27:25.487Z,30.27
2019-02-10T07:30:07.815Z,31.27
2019-02-10T07:32:49.862Z,35.77
2019-02-10T07:35:31.671Z,30.40
2019-02-10T07:38:13.942Z,33.40
2019-02-10T07:40:55.836Z,27.63
2019-02-10T07:43:37.887Z,28.53
2019-02-10T07:46:19.995Z,37.17
2019-02-10T07:49:01.984Z,31.57
2019-02-10T07:51:44.020Z,30.13
2019-02-10T07:54:25.903Z,34.93
2019-02-10T07:57:27.558Z,31.00
2019-02-10T08:00:11.223Z,32.80
2019-02-10T08:02:53.595Z,42.57
2019-02-10T08:05:35.701Z,34.43
2019-02-10T08:08:17.929Z,30.47
2019-02-10T08:11:00.532Z,37.60
2019-02-10T08:13:43.019Z,33.10
2019-02-10T08:16:24.971Z,28.30
2019-02-10T08:19:07.663Z,28.87
2019-02-10T08:21:49.926Z,24.33
2019-02-10T08:24:32.239Z,27.27
2019-02-10T08:27:14.399Z,30.60
2019-02-10T08:29:56.470Z,31.33
2019-02-10T08:32:38.891Z,28.07
2019-02-10T08:35:47.492Z,30.33
2019-02-10T08:38:29.734Z,30.70
2019-02-10T08:41:11.871Z,35.80
2019-02-10T08:43:54.119Z,45.40
2019-02-10T08:46:36.383Z,29.57
2019-02-10T08:49:18.772Z,35.83
2019-02-10T08:52:00.770Z,40.90
2019-02-10T08:54:42.594Z,48.10
2019-02-10T08:57:24.635Z,29.40
2019-02-10T09:00:06.531Z,40.77
2019-02-10T09:02:48.783Z,40.87
2019-02-10T09:05:19.174Z,33.90
2019-02-10T09:08:09.371Z,24.83
2019-02-10T09:10:51.747Z,27.17
2019-02-10T09:13:34.272Z,33.50
2019-02-10T09:16:16.003Z,24.57
2019-02-10T09:18:58.112Z,24.33
2019-02-10T09:21:40.695Z,27.80
2019-02-10T09:24:23.115Z,25.23
2019-02-10T09:27:05.240Z,25.27
2019-02-10T09:29:47.040Z,26.37
2019-02-10T09:32:29.235Z,26.63
2019-02-10T09:35:11.743Z,27.40
2019-02-10T09:37:53.842Z,27.73
2019-02-10T09:40:35.711Z,35.87
2019-02-10T09:43:17.867Z,28.60
2019-02-10T09:45:59.631Z,31.67
2019-02-10T09:48:42.088Z,28.63
2019-02-10T09:51:26.899Z,35.50
2019-02-10T09:54:08.885Z,31.23
2019-02-10T09:56:51.171Z,38.20
2019-02-10T09:59:33.612Z,31.67
2019-02-10T10:02:16.183Z,36.10
2019-02-10T10:04:58.259Z,34.10
2019-02-10T10:07:40.916Z,43.13
2019-02-10T10:10:23.014Z,39.50
2019-02-10T10:13:04.907Z,42.13
2019-02-10T10:15:46.735Z,37.57
2019-02-10T10:18:26.560Z,43.33
2019-02-10T10:21:08.882Z,37.57
2019-02-10T10:23:51.857Z,52.27
2019-02-10T10:26:37.157Z,37.97
2019-02-10T10:29:19.088Z,43.93
2019-02-10T10:32:01.255Z,33.20
2019-02-10T10:34:43.536Z,40.70
2019-02-10T10:37:25.103Z,34.60
2019-02-10T10:40:08.279Z,31.20
2019-02-10T10:42:50.306Z,33.17
2019-02-10T10:45:32.359Z,37.97
2019-02-10T10:48:14.497Z,37.13
2019-02-10T10:50:56.424Z,34.03
2019-02-10T10:53:38.376Z,32.20
2019-02-10T10:56:20.583Z,31.17
2019-02-10T10:59:03.085Z,30.63
2019-02-10T11:01:45.273Z,34.87
2019-02-10T11:04:27.271Z,30.73
2019-02-10T11:07:09.168Z,30.10
2019-02-10T11:09:51.014Z,33.93
2019-02-10T11:12:33.607Z,38.43
2019-02-10T11:15:17.646Z,39.83
2019-02-10T11:17:57.299Z,33.70
2019-02-10T11:20:39.111Z,41.50
2019-02-10T11:23:21.506Z,30.33
2019-02-10T11:26:03.883Z,33.63
2019-02-10T11:28:46.330Z,39.10
2019-02-10T11:31:28.602Z,36.97
2019-02-10T11:34:10.403Z,36.93
2019-02-10T11:36:52.541Z,33.10
2019-02-10T11:39:34.833Z,35.50
2019-02-10T11:42:05.399Z,33.77
2019-02-10T11:44:54.913Z,33.90
2019-02-10T11:47:37.285Z,42.00
2019-02-10T11:50:19.795Z,36.47
2019-02-10T11:53:02.147Z,32.63
2019-02-10T11:55:44.108Z,31.50
2019-02-10T11:58:26.259Z,32.57
2019-02-10T12:01:08.667Z,35.30
2019-02-10T12:03:50.959Z,37.30
2019-02-10T12:06:32.930Z,33.87
2019-02-10T12:09:15.351Z,34.93
2019-02-10T12:11:57.775Z,30.67
2019-02-10T12:14:39.763Z,32.97
2019-02-10T12:17:21.743Z,33.00
2019-02-10T12:20:03.984Z,31.33
2019-02-10T12:22:50.291Z,33.70
2019-02-10T12:25:30.042Z,31.30
2019-02-10T12:28:12.199Z,31.17
2019-02-10T12:30:53.072Z,35.67
2019-02-10T12:33:35.043Z,20.77
2019-02-10T12:36:17.278Z,35.13
2019-02-10T12:38:59.534Z,34.40
2019-02-10T12:41:43.871Z,28.53
2019-02-10T12:44:14.350Z,30.27
2019-02-10T12:47:03.087Z,26.40
2019-02-10T12:52:32.575Z,23.33
2019-02-10T12:55:14.703Z,33.13
2019-02-10T12:57:56.951Z,30.07
2019-02-10T13:00:38.966Z,35.83
2019-02-10T13:03:21.278Z,33.17
2019-02-10T13:06:03.211Z,33.47
2019-02-10T13:08:46.418Z,35.20
2019-02-10T13:11:28.912Z,29.37
2019-02-10T13:14:11.326Z,35.53
2019-02-10T13:16:53.603Z,24.07
2019-02-10T13:19:36.003Z,32.47
2019-02-10T13:22:18.190Z,25.40
2019-02-10T13:25:01.056Z,32.13
2019-02-10T13:27:43.184Z,34.50
2019-02-10T13:30:25.538Z,30.13
2019-02-10T13:33:07.710Z,32.63
2019-02-10T13:35:50.151Z,31.10
2019-02-10T13:38:31.947Z,29.00
2019-02-10T13:41:14.535Z,29.50
2019-02-10T13:43:56.786Z,26.07
2019-02-10T13:46:39.011Z,20.93
2019-02-10T13:49:21.163Z,26.53
2019-02-10T13:52:03.566Z,29.33
2019-02-10T13:54:45.913Z,29.33
2019-02-10T13:57:28.423Z,28.07
2019-02-10T14:00:10.502Z,29.50
2019-02-10T14:02:52.735Z,29.03
2019-02-10T14:05:34.829Z,30.83
2019-02-10T14:08:05.334Z,30.40
2019-02-10T14:10:47.830Z,25.40
2019-02-10T14:13:29.726Z,24.57
2019-02-10T14:16:11.428Z,27.50
2019-02-10T14:18:53.671Z,31.60
2019-02-10T14:21:35.919Z,26.23
2019-02-10T14:24:18.085Z,28.67
2019-02-10T14:27:00.210Z,30.17
2019-02-10T14:29:42.339Z,29.50
2019-02-10T14:32:24.239Z,28.70
2019-02-10T14:35:06.638Z,31.57
2019-02-10T14:37:49.026Z,29.93
2019-02-10T14:40:33.649Z,31.47
2019-02-10T14:43:15.144Z,34.17
2019-02-10T14:45:57.567Z,35.07
2019-02-10T14:48:39.139Z,32.17
2019-02-10T14:51:21.550Z,26.60
2019-02-10T14:54:03.579Z,25.23
2019-02-10T14:56:46.050Z,28.67
2019-02-10T14:59:27.963Z,34.47
2019-02-10T15:02:10.611Z,30.73
2019-02-10T15:04:52.878Z,27.30
2019-02-10T15:07:35.395Z,40.37
2019-02-10T15:10:17.806Z,34.40
2019-02-10T15:13:00.131Z,32.07
2019-02-10T15:15:40.716Z,30.33
2019-02-10T15:18:23.074Z,37.70
2019-02-10T15:21:04.863Z,33.90
2019-02-10T15:23:47.407Z,33.27
2019-02-10T15:26:29.271Z,36.83
2019-02-10T15:29:11.819Z,36.80
2019-02-10T15:31:53.931Z,42.87
2019-02-10T15:34:36.391Z,39.77
2019-02-10T15:37:17.947Z,40.77
2019-02-10T15:40:00.428Z,40.47
2019-02-10T15:42:42.373Z,48.97
2019-02-10T15:45:24.478Z,34.87
2019-02-10T15:48:07.163Z,41.87
2019-02-10T15:50:49.723Z,35.17
2019-02-10T15:53:30.220Z,37.00
2019-02-10T15:56:12.423Z,43.90
2019-02-10T15:58:54.407Z,45.40
2019-02-10T16:01:36.603Z,40.73
2019-02-10T16:04:18.566Z,35.07
2019-02-10T16:06:49.102Z,43.63
2019-02-10T16:09:38.439Z,36.83
2019-02-10T16:12:20.350Z,32.27
2019-02-10T16:15:02.669Z,45.80
2019-02-10T16:17:44.856Z,38.17
2019-02-10T16:20:26.732Z,46.60
2019-02-10T16:23:09.272Z,39.07
2019-02-10T16:25:51.330Z,47.77
2019-02-10T16:28:33.760Z,47.00
2019-02-10T16:31:15.810Z,41.60
2019-02-10T16:33:58.075Z,47.73
2019-02-10T16:36:39.983Z,47.57
2019-02-10T16:39:22.695Z,43.83
2019-02-10T16:42:04.827Z,49.13
2019-02-10T16:44:46.884Z,40.03
2019-02-10T16:47:28.755Z,43.07
2019-02-10T16:50:11.076Z,48.10
2019-02-10T16:52:54.111Z,40.77
2019-02-10T16:55:36.767Z,36.13
2019-02-10T16:58:17.181Z,39.10
2019-02-10T17:00:59.375Z,40.13
2019-02-10T17:03:42.251Z,46.57
2019-02-10T17:06:24.531Z,35.47
2019-02-10T17:09:06.444Z,43.20
2019-02-10T17:11:50.050Z,37.10
2019-02-10T17:14:32.103Z,44.27
2019-02-10T17:17:13.851Z,28.60
2019-02-10T17:19:56.053Z,33.27
2019-02-10T17:22:38.499Z,40.50
2019-02-10T17:25:20.447Z,29.27
2019-02-10T17:28:02.646Z,33.37
2019-02-10T17:30:43.070Z,27.23
2019-02-10T17:33:25.463Z,37.43
2019-02-10T17:36:07.676Z,43.63
2019-02-10T17:38:49.850Z,36.97
2019-02-10T17:41:32.024Z,33.53
2019-02-10T17:44:14.438Z,40.40
2019-02-10T17:46:56.228Z,27.63
2019-02-10T17:49:38.623Z,43.53
2019-02-10T17:52:20.859Z,36.80
2019-02-10T17:55:03.064Z,38.70
2019-02-10T17:57:47.889Z,51.70
2019-02-10T18:00:35.117Z,43.17
2019-02-10T18:03:18.433Z,47.20
2019-02-10T18:06:00.928Z,29.23
2019-02-10T18:08:43.293Z,38.33
2019-02-10T18:11:30.866Z,63.37
2019-02-10T18:14:28.103Z,57.00
2019-02-10T18:17:29.295Z,97.13
2019-02-10T18:20:30.163Z,68.30
2019-02-10T18:23:34.342Z,112.60
2019-02-10T18:26:36.976Z,70.87
2019-02-10T18:29:45.003Z,69.17
2019-02-10T18:32:39.207Z,38.53
2019-02-10T18:35:35.779Z,46.37
2019-02-10T18:38:30.315Z,52.33
2019-02-10T18:41:39.303Z,75.37
2019-02-10T18:44:42.678Z,57.27
2019-02-10T18:47:43.829Z,42.27
2019-02-10T18:50:44.631Z,37.33
2019-02-10T18:53:51.843Z,29.57
2019-02-10T18:56:53.338Z,62.67
2019-02-10T18:59:59.531Z,89.57
2019-02-10T19:03:00.583Z,123.37
2019-02-10T19:05:55.220Z,146.40
2019-02-10T19:09:03.972Z,81.17
2019-02-10T19:12:13.258Z,44.83
2019-02-10T19:15:17.066Z,83.40
2019-02-10T19:18:15.038Z,74.83
2019-02-10T19:21:16.219Z,51.93
2019-02-10T19:24:04.327Z,92.00
2019-02-10T19:26:45.697Z,50.20
2019-02-10T19:29:44.616Z,45.73
2019-02-10T19:32:52.527Z,75.37
2019-02-10T19:35:53.579Z,94.20
2019-02-10T19:38:54.481Z,51.73
2019-02-10T19:41:55.917Z,26.37
2019-02-10T19:44:55.211Z,21.80
2019-02-10T19:47:56.322Z,64.53
2019-02-10T19:50:57.556Z,41.30
2019-02-10T19:53:58.283Z,28.87
2019-02-10T19:56:59.747Z,36.67
2019-02-10T19:59:51.202Z,54.77
2019-02-10T20:02:41.575Z,38.47
2019-02-10T20:05:42.159Z,73.87
2019-02-10T20:08:43.271Z,60.40
2019-02-10T20:11:43.853Z,22.93
2019-02-10T20:14:33.268Z,24.00
2019-02-10T20:17:25.518Z,46.47
2019-02-10T20:20:26.644Z,33.27
2019-02-10T20:23:27.827Z,39.67
2019-02-10T20:26:28.909Z,23.03
2019-02-10T20:29:29.991Z,32.10
2019-02-10T20:32:23.868Z,41.07
2019-02-10T20:35:14.839Z,54.20
2019-02-10T20:38:06.094Z,54.87
2019-02-10T20:41:06.821Z,26.97
2019-02-10T20:44:07.427Z,33.47
2019-02-10T20:46:57.171Z,29.73
2019-02-10T20:49:57.911Z,19.20
2019-02-10T20:52:49.471Z,16.37
2019-02-10T20:55:37.984Z,25.10
2019-02-10T20:58:30.667Z,56.23
2019-02-10T21:04:22.927Z,25.87
2019-02-10T21:07:26.863Z,16.37
2019-02-10T21:10:27.404Z,35.57
2019-02-10T21:13:16.615Z,28.77
2019-02-10T21:16:23.619Z,18.67
2019-02-10T21:19:21.435Z,19.33
2019-02-10T21:22:14.277Z,11.40
2019-02-10T21:25:15.259Z,14.37
2019-02-10T21:28:16.326Z,11.27
2019-02-10T21:31:17.591Z,14.33
2019-02-10T21:34:24.677Z,14.43
2019-02-10T21:37:25.411Z,18.33
2019-02-10T21:40:26.719Z,25.27
2019-02-10T21:43:27.851Z,20.80
2019-02-10T21:46:28.973Z,25.27
2019-02-10T21:49:13.165Z,18.90
2019-02-10T21:51:55.394Z,39.50
2019-02-10T21:54:37.618Z,20.40
2019-02-10T21:57:19.770Z,39.33
2019-02-10T22:00:01.891Z,18.47
2019-02-10T22:02:46.196Z,38.90
2019-02-10T22:05:28.483Z,59.23
2019-02-10T22:08:11.015Z,125.37
2019-02-10T22:10:53.398Z,159.77
2019-02-10T22:13:34.043Z,128.13
2019-02-10T22:16:16.023Z,231.93
2019-02-10T22:18:58.436Z,178.50
2019-02-10T22:21:40.355Z,521.17
2019-02-10T22:24:22.787Z,268.57
2019-02-10T22:27:05.051Z,193.73
2019-02-10T22:29:47.295Z,417.73
2019-02-10T22:32:29.339Z,182.60
2019-02-10T22:38:08.242Z,212.23
2019-02-10T22:40:50.140Z,292.23
2019-02-10T22:43:32.704Z,198.63
2019-02-10T22:46:14.895Z,148.33
2019-02-10T22:48:56.783Z,118.47
2019-02-10T22:51:38.449Z,108.07
2019-02-10T22:54:20.323Z,189.07
2019-02-10T22:57:02.159Z,148.57
2019-02-10T22:59:44.247Z,87.37
2019-02-10T23:02:26.543Z,237.60
2019-02-10T23:05:08.697Z,176.00
2019-02-10T23:07:50.759Z,279.13
2019-02-10T23:10:32.955Z,186.10
2019-02-10T23:13:14.968Z,203.33
2019-02-10T23:15:56.903Z,263.45
2019-02-10T23:18:39.259Z,249.20
2019-02-10T23:21:21.795Z,207.67
2019-02-10T23:24:04.229Z,209.60
2019-02-10T23:26:46.474Z,125.70
2019-02-10T23:29:16.790Z,112.73
2019-02-10T23:35:07.120Z,202.90
2019-02-10T23:37:49.159Z,138.93
2019-02-10T23:40:31.663Z,173.90
2019-02-10T23:43:14.119Z,95.70
2019-02-10T23:45:56.639Z,128.83
2019-02-10T23:48:38.355Z,133.23
2019-02-10T23:54:19.245Z,97.77
2019-02-10T23:57:01.474Z,79.30
2019-02-10T23:59:43.663Z,79.47
